N746P KHAF-KCCR
Flight info
| Callsign | N746P |
|---|---|
| Flight time | N/A |
| Altitude | 2500 |
| Route | KHAF DCT KSFO DCT KCCR |
| Aircraft | S76/L-SFG/C |
Departure
| Time | 2026-04-15 00:05 |
|---|---|
| Airport | Half Moon Bay Airport (KHAF) |
Arrival
| Time | N/A |
|---|---|
| Airport | Buchanan Field (KCCR) |
| Time | Latitude | Longitude | Altitude | Speed | Heading |
|---|---|---|---|---|---|
| 2026-04-14 23:56 | 37.51189 | -122.49622 | 35 ft | 0 kts | 51° |
| 2026-04-15 00:00 | 37.51189 | -122.49623 | 35 ft | 0 kts | 32° |
| 2026-04-15 00:00 | 37.51188 | -122.49623 | 35 ft | 0 kts | 11° |
| 2026-04-15 00:00 | 37.51188 | -122.49624 | 35 ft | 0 kts | 359° |
| 2026-04-15 00:01 | 37.51187 | -122.49624 | 35 ft | 0 kts | 329° |
| 2026-04-15 00:02 | 37.51263 | -122.49684 | 52 ft | 41 kts | 326° |
| 2026-04-15 00:02 | 37.51296 | -122.49716 | 61 ft | 46 kts | 325° |
| 2026-04-15 00:03 | 37.51589 | -122.50035 | 125 ft | 71 kts | 315° |
| 2026-04-15 00:03 | 37.51972 | -122.50498 | 204 ft | 80 kts | 313° |
| 2026-04-15 00:03 | 37.52398 | -122.50985 | 256 ft | 85 kts | 325° |
| 2026-04-15 00:03 | 37.52915 | -122.51410 | 357 ft | 93 kts | 327° |
| 2026-04-15 00:04 | 37.53552 | -122.51670 | 498 ft | 105 kts | 351° |
| 2026-04-15 00:04 | 37.54349 | -122.51559 | 516 ft | 123 kts | 7° |
| 2026-04-15 00:04 | 37.55230 | -122.51300 | 558 ft | 137 kts | 1° |
| 2026-04-15 00:04 | 37.56201 | -122.51332 | 662 ft | 145 kts | 346° |
| 2026-04-15 00:05 | 37.57199 | -122.51644 | 806 ft | 151 kts | 336° |
| 2026-04-15 00:05 | 37.58201 | -122.52097 | 948 ft | 154 kts | 343° |
| 2026-04-15 00:05 | 37.59279 | -122.52218 | 818 ft | 158 kts | 6° |
| 2026-04-15 00:05 | 37.60265 | -122.51677 | 912 ft | 157 kts | 34° |
| 2026-04-15 00:06 | 37.60953 | -122.50588 | 884 ft | 163 kts | 53° |
| 2026-04-15 00:06 | 37.61592 | -122.49393 | 698 ft | 163 kts | 38° |
| 2026-04-15 00:06 | 37.62460 | -122.48570 | 527 ft | 155 kts | 15° |
| 2026-04-15 00:06 | 37.63452 | -122.48131 | 679 ft | 147 kts | 7° |
| 2026-04-15 00:07 | 37.64425 | -122.47849 | 868 ft | 142 kts | 15° |
| 2026-04-15 00:07 | 37.65156 | -122.47036 | 979 ft | 147 kts | 59° |
| 2026-04-15 00:07 | 37.65511 | -122.45821 | 777 ft | 151 kts | 75° |
| 2026-04-15 00:07 | 37.65565 | -122.44467 | 466 ft | 159 kts | 95° |
| 2026-04-15 00:08 | 37.65349 | -122.43087 | 414 ft | 162 kts | 106° |
| 2026-04-15 00:08 | 37.64956 | -122.41753 | 441 ft | 160 kts | 118° |
| 2026-04-15 00:08 | 37.64441 | -122.40596 | 368 ft | 136 kts | 123° |
| 2026-04-15 00:08 | 37.64079 | -122.39694 | 304 ft | 94 kts | 119° |
| 2026-04-15 00:09 | 37.63870 | -122.39139 | 206 ft | 42 kts | 136° |
| 2026-04-15 00:09 | 37.63681 | -122.38904 | 138 ft | 37 kts | 143° |
| 2026-04-15 00:09 | 37.63630 | -122.38838 | 54 ft | 4 kts | 156° |
| 2026-04-15 00:09 | 37.63606 | -122.38836 | 13 ft | 2 kts | 155° |
| 2026-04-15 00:10 | 37.63604 | -122.38837 | 11 ft | 0 kts | 153° |
| 2026-04-15 00:11 | 37.63605 | -122.38837 | 11 ft | 0 kts | 146° |
| 2026-04-15 00:13 | 37.63606 | -122.38838 | 11 ft | 0 kts | 115° |
| 2026-04-15 00:13 | 37.63600 | -122.38825 | 15 ft | 6 kts | 82° |
| 2026-04-15 00:13 | 37.63658 | -122.38726 | 134 ft | 46 kts | 33° |
| 2026-04-15 00:14 | 37.64102 | -122.38402 | 177 ft | 88 kts | 27° |
| 2026-04-15 00:14 | 37.64687 | -122.38016 | 279 ft | 101 kts | 14° |
| 2026-04-15 00:14 | 37.65355 | -122.37989 | 328 ft | 98 kts | 336° |
| 2026-04-15 00:14 | 37.66002 | -122.38356 | 466 ft | 105 kts | 338° |
| 2026-04-15 00:15 | 37.66709 | -122.38703 | 552 ft | 115 kts | 346° |
| 2026-04-15 00:15 | 37.67529 | -122.38716 | 474 ft | 124 kts | 1° |
| 2026-04-15 00:15 | 37.68395 | -122.38645 | 462 ft | 123 kts | 354° |
| 2026-04-15 00:15 | 37.69243 | -122.38701 | 572 ft | 122 kts | 350° |
| 2026-04-15 00:16 | 37.70070 | -122.38878 | 576 ft | 119 kts | 344° |
| 2026-04-15 00:16 | 37.70861 | -122.39162 | 608 ft | 117 kts | 336° |
| 2026-04-15 00:16 | 37.71555 | -122.39613 | 558 ft | 111 kts | 332° |
| 2026-04-15 00:16 | 37.72264 | -122.39969 | 496 ft | 109 kts | 340° |
| 2026-04-15 00:17 | 37.72965 | -122.40282 | 466 ft | 103 kts | 335° |
| 2026-04-15 00:17 | 37.73616 | -122.40588 | 528 ft | 93 kts | 345° |
| 2026-04-15 00:17 | 37.74201 | -122.40717 | 611 ft | 86 kts | 7° |
| 2026-04-15 00:17 | 37.74794 | -122.40561 | 499 ft | 90 kts | 19° |
| 2026-04-15 00:18 | 37.75872 | -122.40575 | 368 ft | 76 kts | 345° |
| 2026-04-15 00:18 | 37.76380 | -122.40496 | 339 ft | 78 kts | 9° |
| 2026-04-15 00:18 | 37.76948 | -122.40317 | 431 ft | 89 kts | 14° |
| 2026-04-15 00:19 | 37.77550 | -122.40005 | 422 ft | 97 kts | 32° |
| 2026-04-15 00:19 | 37.78092 | -122.39473 | 433 ft | 103 kts | 45° |
| 2026-04-15 00:19 | 37.78681 | -122.38771 | 425 ft | 130 kts | 44° |
| 2026-04-15 00:19 | 37.79374 | -122.37874 | 381 ft | 156 kts | 50° |
| 2026-04-15 00:20 | 37.80207 | -122.36835 | 384 ft | 176 kts | 43° |